sensor_id;sensor_type;location;lat;lon;timestamp;pressure;altitude;pressure_sealevel;temperature;humidity
54588;BME280;40484;50.198;19.576;2022-08-21T00:02:33;101252.83;;;23.61;59.82
54588;BME280;40484;50.198;19.576;2022-08-21T00:07:35;101248.31;;;23.54;60.36
54588;BME280;40484;50.198;19.576;2022-08-21T00:12:36;101245.23;;;23.65;60.14
54588;BME280;40484;50.198;19.576;2022-08-21T00:17:38;101235.16;;;23.62;60.40
54588;BME280;40484;50.198;19.576;2022-08-21T00:22:42;101237.57;;;23.47;60.94
54588;BME280;40484;50.198;19.576;2022-08-21T00:28:08;101225.38;;;23.50;61.10
54588;BME280;40484;50.198;19.576;2022-08-21T00:33:10;101225.30;;;23.42;61.40
54588;BME280;40484;50.198;19.576;2022-08-21T00:38:12;101212.67;;;23.49;61.19
54588;BME280;40484;50.198;19.576;2022-08-21T00:43:17;101207.16;;;23.36;61.53
54588;BME280;40484;50.198;19.576;2022-08-21T00:48:18;101199.49;;;23.27;61.82
54588;BME280;40484;50.198;19.576;2022-08-21T00:53:20;101198.92;;;23.31;61.83
54588;BME280;40484;50.198;19.576;2022-08-21T00:58:23;101202.51;;;23.53;61.12
54588;BME280;40484;50.198;19.576;2022-08-21T01:03:25;101199.93;;;23.53;60.99
54588;BME280;40484;50.198;19.576;2022-08-21T01:08:27;101204.48;;;23.56;61.12
54588;BME280;40484;50.198;19.576;2022-08-21T01:13:32;101198.34;;;23.83;60.39
54588;BME280;40484;50.198;19.576;2022-08-21T01:18:34;101176.84;;;23.92;59.99
54588;BME280;40484;50.198;19.576;2022-08-21T01:23:38;101181.48;;;24.10;59.46
54588;BME280;40484;50.198;19.576;2022-08-21T01:28:48;101177.25;;;23.97;59.51
54588;BME280;40484;50.198;19.576;2022-08-21T01:33:49;101181.82;;;23.91;59.76
54588;BME280;40484;50.198;19.576;2022-08-21T01:38:51;101170.37;;;23.77;60.24
54588;BME280;40484;50.198;19.576;2022-08-21T01:43:53;101167.04;;;23.89;60.01
54588;BME280;40484;50.198;19.576;2022-08-21T01:48:54;101158.75;;;23.98;60.08
54588;BME280;40484;50.198;19.576;2022-08-21T01:53:56;101147.56;;;24.21;59.69
54588;BME280;40484;50.198;19.576;2022-08-21T01:59:24;101143.89;;;24.31;59.30
54588;BME280;40484;50.198;19.576;2022-08-21T02:04:26;101120.94;;;24.39;59.20
54588;BME280;40484;50.198;19.576;2022-08-21T02:09:28;101119.88;;;24.56;58.74
54588;BME280;40484;50.198;19.576;2022-08-21T02:14:29;101123.84;;;24.36;58.90
54588;BME280;40484;50.198;19.576;2022-08-21T02:19:31;101126.67;;;24.35;59.06
54588;BME280;40484;50.198;19.576;2022-08-21T02:24:33;101129.55;;;24.54;58.80
54588;BME280;40484;50.198;19.576;2022-08-21T02:29:34;101119.49;;;24.82;58.13
54588;BME280;40484;50.198;19.576;2022-08-21T02:34:36;101113.77;;;24.94;57.74
54588;BME280;40484;50.198;19.576;2022-08-21T02:39:37;101105.30;;;24.77;57.81
54588;BME280;40484;50.198;19.576;2022-08-21T02:44:39;101106.68;;;24.84;57.82
54588;BME280;40484;50.198;19.576;2022-08-21T02:49:40;101111.27;;;24.97;57.46
54588;BME280;40484;50.198;19.576;2022-08-21T02:54:42;101118.88;;;24.86;57.55
54588;BME280;40484;50.198;19.576;2022-08-21T02:59:43;101125.03;;;24.82;57.70
54588;BME280;40484;50.198;19.576;2022-08-21T03:04:45;101119.88;;;24.95;57.51
54588;BME280;40484;50.198;19.576;2022-08-21T03:09:46;101124.78;;;25.10;57.21
54588;BME280;40484;50.198;19.576;2022-08-21T03:14:48;101119.91;;;25.10;57.05
54588;BME280;40484;50.198;19.576;2022-08-21T03:19:49;101128.92;;;25.00;57.20
54588;BME280;40484;50.198;19.576;2022-08-21T03:24:51;101128.78;;;25.07;57.10
54588;BME280;40484;50.198;19.576;2022-08-21T03:29:53;101130.12;;;25.25;56.71
54588;BME280;40484;50.198;19.576;2022-08-21T03:34:55;101132.74;;;25.42;56.39
54588;BME280;40484;50.198;19.576;2022-08-21T03:39:57;101135.47;;;25.36;56.20
54588;BME280;40484;50.198;19.576;2022-08-21T03:44:58;101136.95;;;25.36;56.20
54588;BME280;40484;50.198;19.576;2022-08-21T03:50:26;101143.16;;;25.42;55.94
54588;BME280;40484;50.198;19.576;2022-08-21T03:55:28;101145.60;;;25.34;56.09
54588;BME280;40484;50.198;19.576;2022-08-21T04:00:30;101161.92;;;25.38;55.98
54588;BME280;40484;50.198;19.576;2022-08-21T04:05:31;101164.49;;;25.38;55.98
54588;BME280;40484;50.198;19.576;2022-08-21T04:10:36;101154.74;;;25.30;56.08
54588;BME280;40484;50.198;19.576;2022-08-21T04:15:37;101161.08;;;25.16;56.40
54588;BME280;40484;50.198;19.576;2022-08-21T04:20:40;101163.27;;;24.87;57.13
54588;BME280;40484;50.198;19.576;2022-08-21T04:25:43;101165.27;;;24.73;57.62
54588;BME280;40484;50.198;19.576;2022-08-21T04:30:45;101169.13;;;24.69;57.89
54588;BME280;40484;50.198;19.576;2022-08-21T04:35:46;101170.13;;;24.66;58.08
54588;BME280;40484;50.198;19.576;2022-08-21T04:40:49;101164.19;;;24.73;57.84
54588;BME280;40484;50.198;19.576;2022-08-21T04:45:52;101161.77;;;24.87;57.59
54588;BME280;40484;50.198;19.576;2022-08-21T04:51:00;101170.70;;;24.87;57.59
54588;BME280;40484;50.198;19.576;2022-08-21T04:56:08;101170.22;;;24.83;57.53
54588;BME280;40484;50.198;19.576;2022-08-21T05:01:13;101174.01;;;24.89;57.35
54588;BME280;40484;50.198;19.576;2022-08-21T05:06:14;101181.18;;;25.01;57.18
54588;BME280;40484;50.198;19.576;2022-08-21T05:11:16;101178.13;;;25.15;56.77
54588;BME280;40484;50.198;19.576;2022-08-21T05:16:45;101180.88;;;25.38;56.31
54588;BME280;40484;50.198;19.576;2022-08-21T05:21:46;101193.23;;;25.53;55.98
54588;BME280;40484;50.198;19.576;2022-08-21T05:26:50;101181.87;;;25.47;56.03
54588;BME280;40484;50.198;19.576;2022-08-21T05:31:52;101174.89;;;25.65;55.97
54588;BME280;40484;50.198;19.576;2022-08-21T05:36:53;101176.61;;;25.35;56.16
54588;BME280;40484;50.198;19.576;2022-08-21T05:41:55;101184.27;;;25.07;56.95
54588;BME280;40484;50.198;19.576;2022-08-21T05:47:04;101183.39;;;24.84;57.89
54588;BME280;40484;50.198;19.576;2022-08-21T05:52:06;101192.22;;;24.50;59.00
54588;BME280;40484;50.198;19.576;2022-08-21T05:57:07;101187.43;;;24.43;59.38
54588;BME280;40484;50.198;19.576;2022-08-21T06:02:09;101186.06;;;24.42;59.23
54588;BME280;40484;50.198;19.576;2022-08-21T06:07:12;101195.42;;;24.11;60.41
54588;BME280;40484;50.198;19.576;2022-08-21T06:12:13;101196.23;;;24.54;59.41
54588;BME280;40484;50.198;19.576;2022-08-21T06:17:15;101189.00;;;24.63;58.92
54588;BME280;40484;50.198;19.576;2022-08-21T06:22:17;101187.04;;;24.43;59.67
54588;BME280;40484;50.198;19.576;2022-08-21T06:27:18;101189.34;;;24.39;59.81
54588;BME280;40484;50.198;19.576;2022-08-21T06:32:20;101198.65;;;24.32;60.26
54588;BME280;40484;50.198;19.576;2022-08-21T06:37:21;101194.66;;;24.35;60.34
54588;BME280;40484;50.198;19.576;2022-08-21T06:42:23;101198.34;;;24.37;59.99
54588;BME280;40484;50.198;19.576;2022-08-21T06:47:25;101200.51;;;24.37;60.27
54588;BME280;40484;50.198;19.576;2022-08-21T06:52:26;101200.51;;;24.37;60.36
54588;BME280;40484;50.198;19.576;2022-08-21T22:52:19;101249.12;;;20.52;63.70
54588;BME280;40484;50.198;19.576;2022-08-21T22:57:22;101239.32;;;20.47;63.95
54588;BME280;40484;50.198;19.576;2022-08-21T23:02:54;101235.20;;;20.50;63.96
54588;BME280;40484;50.198;19.576;2022-08-21T23:07:38;101241.11;;;20.50;63.96
54588;BME280;40484;50.198;19.576;2022-08-21T23:12:39;101228.04;;;20.43;64.57
54588;BME280;40484;50.198;19.576;2022-08-21T23:17:53;101236.63;;;20.39;65.00
54588;BME280;40484;50.198;19.576;2022-08-21T23:23:02;101242.12;;;20.46;65.14
54588;BME280;40484;50.198;19.576;2022-08-21T23:28:07;101248.03;;;20.58;65.11
54588;BME280;40484;50.198;19.576;2022-08-21T23:38:19;101245.47;;;20.71;64.90
54588;BME280;40484;50.198;19.576;2022-08-21T23:43:43;101247.63;;;20.88;64.59
54588;BME280;40484;50.198;19.576;2022-08-21T23:54:28;101241.64;;;20.84;64.31
54588;BME280;40484;50.198;19.576;2022-08-21T23:59:54;101239.09;;;20.84;64.37
